METAR Data
IDs: Format: Raw Decoded Include TAF

Data at: 1300 UTC 15 Jul 2020

KBAF 151253Z 03005KT 10SM OVC031 21/17 A3020 RMK AO2 SLP226 T02060167
KBAF 151239Z 02004KT 10SM OVC030 21/17 A3020 RMK AO2 T02060167
KBAF 151153Z 01006KT 10SM OVC029 20/17 A3019 RMK AO2 SLP220 70001 T02000172 10200 20189 53015
KBAF 151144Z 36005KT 10SM BKN029 20/17 A3019 RMK AO2 T02000172
KBAF 151053Z 01005KT 10SM FEW018 FEW026 19/17 A3017 RMK AO2 SLP214 T01890172
KBAF 151038Z AUTO 36005KT 10SM SCT026 19/17 A3017 RMK AO2 T01890172
KBAF 150953Z AUTO 36004KT 10SM OVC025 19/17 A3016 RMK AO2 SLP211 T01890172
KBAF 150853Z AUTO 01005KT 10SM BKN015 OVC026 19/17 A3014 RMK AO2 SLP206 T01890172 51010
KBAF 150850Z AUTO 01006KT 10SM BKN015 OVC026 19/17 A3014 RMK AO2
KBAF 150842Z AUTO 01006KT 10SM BKN014 OVC026 19/17 A3014 RMK AO2 T01890172
KBAF 150753Z AUTO 02006KT 10SM OVC027 19/18 A3012 RMK AO2 SLP199 T01940178
KBAF 150653Z AUTO 35005KT 10SM FEW007 FEW014 OVC026 19/18 A3011 RMK AO2 SLP196 T01940183
KBAF 150650Z AUTO 35005KT 10SM FEW007 FEW014 OVC026 19/18 A3011 RMK AO2
KBAF 150553Z AUTO 01006KT 10SM OVC025 19/18 A3011 RMK AO2 SLP193 T01940183 10211 20189 51013
KBAF 150453Z AUTO 36004KT 10SM BKN025 19/19 A3011 RMK AO2 SLP193 T01940189 402890172
KBAF 150353Z AUTO 04005KT 10SM FEW033 19/18 A3009 RMK AO2 SLP187 T01940183
KBAF 150253Z AUTO 00000KT 10SM SCT047 19/19 A3007 RMK AO2 SLP181 T01940189 51018
KBAF 150153Z 00000KT 10SM BKN038 OVC048 21/19 A3006 RMK AO2 SLP178 T02060194
KBAF 150053Z 00000KT 10SM CLR 21/19 A3004 RMK AO2 SLP171 T02060189
KBAF 142353Z 00000KT 10SM CLR 23/19 A3002 RMK AO2 SLP163 T02330189 10272 20233 51015
KBAF 142253Z 05004KT 10SM CLR 24/18 A3001 RMK AO2 SLP161 T02440178
KBAF 142153Z 04004KT 10SM CLR 24/17 A2999 RMK AO2 SLP154 T02390172
KBAF 142053Z 03007KT 10SM SCT055 SCT075 BKN110 24/17 A2997 RMK AO2 LTG DSNT N SLP148 T02440167 53008
KBAF 141953Z 02008KT 10SM FEW120 26/17 A2995 RMK AO2 LTG DSNT N SLP140 T02610167
KBAF 141853Z 03009KT 10SM SCT110 24/17 A2995 RMK AO2 SLP140 T02440167
KBAF 141753Z 04007KT 10SM FEW090 SCT120 24/18 A2995 RMK AO2 LTG DSNT SE RAE16 SLP140 P0001 60001 T02390178 10289 20228 53013
KBAF 141720Z 05005KT 10SM SCT050 SCT095 BKN120 24/16 A2995 RMK AO2 LTG DSNT E AND SE RAE16 P0001 T02390161
KBAF 141653Z 03008KT 10SM VCTS -RA SCT049 SCT055 BKN070 24/14 A2994 RMK AO2 PK WND 01027/1625 LTG DSNT N-E RAB50 TSB33E48 SLP137 P0000 T02390144
KBAF 141639Z 03009G19KT 10SM TS BKN049 BKN065 24/14 A2993 RMK AO2 PK WND 01027/1625 LTG DSNT N TSB33 T02390144
KBAF 141606Z 00000KT 10SM VCTS SCT045 BKN065 28/17 A2991 RMK AO2 LTG DSNT N AND NE T02780167
KBAF 141553Z 31009KT 10SM BKN045 BKN060 27/16 A2991 RMK AO2 LTG DSNT N SLP127 T02720161
KBAF 141453Z 33008KT 10SM FEW041 27/16 A2991 RMK AO2 LTG DSNT N SLP125 T02720161 50001
KBAF 141353Z 35008KT 290V010 10SM CLR 26/17 A2992 RMK AO2 SLP127 T02610167
KBAF 141253Z 31009KT 10SM CLR 24/17 A2991 RMK AO2 SLP126 T02440172
KBAF 141153Z 32009G16KT 10SM FEW048 23/17 A2991 RMK AO2 SLP125 70026 T02280167 10228 20172 53020
KBAF 141053Z 35009KT 10SM CLR 22/17 A2989 RMK AO2 SLP117 T02170172
KBAF 140953Z AUTO 02005KT 10SM CLR 20/17 A2987 RMK AO2 SLP110 T02000167
KBAF 140853Z AUTO 01003KT 10SM SCT090 OVC120 18/17 A2985 RMK AO2 SLP105 T01830172 53004
KBAF 140753Z AUTO 00000KT 10SM SCT120 17/17 A2983 RMK AO2 SLP101 T01720167
KBAF 140653Z AUTO 00000KT 10SM CLR 18/17 A2983 RMK AO2 SLP099 T01830172
KBAF 140553Z AUTO 32003KT 10SM CLR 21/17 A2984 RMK AO2 SLP102 60000 T02060172 10250 20200 51002
KBAF 140453Z AUTO 00000KT 10SM BKN070 21/18 A2983 RMK AO2 SLP100 T02060183 403060194
KBAF 140353Z AUTO 05003KT 10SM BKN080 22/18 A2984 RMK AO2 SLP101 T02170178
KBAF 140253Z AUTO 07003KT 10SM CLR 21/19 A2983 RMK AO2 SLP099 60000 T02110189 51016
KBAF 140153Z 00000KT 10SM FEW046 22/18 A2982 RMK AO2 RAB23E44 SLP095 P0000 T02170183